createdAt,value
2018-04-19T00:04:47.238Z,2.23
2018-04-19T00:07:15.513Z,2.60
2018-04-19T00:09:43.790Z,2.67
2018-04-19T00:12:12.106Z,2.40
2018-04-19T00:14:40.396Z,2.47
2018-04-19T00:17:08.684Z,2.03
2018-04-19T00:19:36.964Z,2.60
2018-04-19T00:22:05.236Z,2.90
2018-04-19T00:24:33.525Z,3.07
2018-04-19T00:27:01.800Z,2.50
2018-04-19T00:29:30.105Z,2.13
2018-04-19T00:31:58.381Z,2.90
2018-04-19T00:34:26.727Z,2.67
2018-04-19T00:36:54.989Z,2.70
2018-04-19T00:39:23.294Z,2.80
2018-04-19T00:41:51.566Z,2.43
2018-04-19T00:44:19.852Z,2.30
2018-04-19T00:46:48.145Z,2.50
2018-04-19T00:49:16.450Z,3.00
2018-04-19T00:51:45.497Z,2.50
2018-04-19T00:54:13.794Z,2.90
2018-04-19T00:56:42.376Z,2.30
2018-04-19T00:59:10.680Z,2.47
2018-04-19T01:01:39.728Z,2.33
2018-04-19T01:04:08.044Z,2.20
2018-04-19T01:06:36.310Z,2.70
2018-04-19T01:09:04.596Z,2.30
2018-04-19T01:11:33.624Z,2.57
2018-04-19T01:14:01.888Z,2.63
2018-04-19T01:16:30.235Z,2.20
2018-04-19T01:18:59.292Z,2.80
2018-04-19T01:21:27.576Z,2.87
2018-04-19T01:23:55.844Z,2.57
2018-04-19T01:26:24.141Z,3.00
2018-04-19T01:28:52.423Z,2.30
2018-04-19T01:31:20.718Z,2.93
2018-04-19T01:33:48.980Z,2.13
2018-04-19T01:36:26.054Z,2.93
2018-04-19T01:38:54.327Z,2.20
2018-04-19T01:41:22.642Z,2.83
2018-04-19T01:43:51.677Z,2.50
2018-04-19T01:46:19.962Z,3.00
2018-04-19T01:48:48.251Z,2.97
2018-04-19T01:51:16.543Z,2.90
2018-04-19T01:53:44.819Z,2.60
2018-04-19T01:56:13.099Z,2.40
2018-04-19T01:58:41.376Z,2.50
2018-04-19T02:01:09.672Z,2.77
2018-04-19T02:03:38.796Z,2.57
2018-04-19T02:06:07.096Z,2.60
2018-04-19T02:08:35.375Z,2.73
2018-04-19T02:11:03.660Z,2.40
2018-04-19T02:13:31.943Z,2.60
2018-04-19T02:16:00.219Z,3.03
2018-04-19T02:18:28.496Z,2.60
2018-04-19T02:20:56.844Z,2.83
2018-04-19T02:23:25.128Z,2.77
2018-04-19T02:25:53.440Z,2.50
2018-04-19T02:28:21.713Z,2.80
2018-04-19T02:30:49.994Z,2.70
2018-04-19T02:33:18.279Z,3.10
2018-04-19T02:35:47.335Z,3.40
2018-04-19T02:38:15.625Z,2.77
2018-04-19T02:40:43.894Z,3.10
2018-04-19T02:43:12.180Z,3.50
2018-04-19T02:45:40.462Z,2.90
2018-04-19T02:48:08.801Z,2.63
2018-04-19T02:50:37.086Z,3.00
2018-04-19T02:53:05.376Z,2.47
2018-04-19T02:55:34.468Z,2.50
2018-04-19T02:58:02.771Z,2.47
2018-04-19T03:00:31.049Z,3.03
2018-04-19T03:03:00.134Z,2.70
2018-04-19T03:05:28.401Z,3.33
2018-04-19T03:07:56.723Z,2.73
2018-04-19T03:10:25.024Z,2.80
2018-04-19T03:12:53.304Z,2.77
2018-04-19T03:15:21.592Z,3.40
2018-04-19T03:17:49.844Z,3.33
2018-04-19T03:20:18.134Z,3.60
2018-04-19T03:22:46.396Z,3.60
2018-04-19T03:25:14.680Z,3.50
2018-04-19T03:27:42.995Z,3.33
2018-04-19T03:30:11.295Z,2.90
2018-04-19T03:32:40.317Z,3.00
2018-04-19T03:35:08.593Z,2.90
2018-04-19T03:37:36.853Z,3.27
2018-04-19T03:40:05.938Z,3.27
2018-04-19T03:42:34.964Z,2.93
2018-04-19T03:45:03.232Z,3.23
2018-04-19T03:47:31.513Z,3.00
2018-04-19T03:49:59.786Z,2.80
2018-04-19T03:52:28.056Z,2.67
2018-04-19T03:54:56.328Z,2.63
2018-04-19T03:57:24.597Z,2.60
2018-04-19T03:59:53.658Z,3.10
2018-04-19T04:02:21.939Z,3.70
2018-04-19T04:04:50.257Z,3.80
2018-04-19T04:07:18.547Z,2.70
2018-04-19T04:09:46.805Z,2.80
2018-04-19T04:12:15.072Z,3.50
2018-04-19T04:14:44.147Z,2.90
2018-04-19T04:17:30.266Z,3.70
2018-04-19T04:20:17.059Z,3.45
2018-04-19T04:23:03.788Z,3.83
2018-04-19T04:25:32.185Z,3.50
2018-04-19T04:28:00.476Z,3.17
2018-04-19T04:30:28.758Z,3.70
2018-04-19T04:32:57.885Z,4.33
2018-04-19T04:35:26.171Z,3.33
2018-04-19T04:37:55.213Z,3.20
2018-04-19T04:40:23.479Z,2.93
2018-04-19T04:42:51.761Z,3.10
2018-04-19T04:45:20.032Z,3.37
2018-04-19T04:47:48.347Z,3.00
2018-04-19T04:50:16.616Z,3.30
2018-04-19T04:52:44.881Z,3.33
2018-04-19T04:55:13.160Z,3.53
2018-04-19T04:57:41.475Z,3.00
2018-04-19T05:00:10.568Z,3.30
2018-04-19T05:02:38.815Z,3.53
2018-04-19T05:05:07.860Z,2.93
2018-04-19T05:07:36.140Z,3.07
2018-04-19T05:10:04.426Z,3.50
2018-04-19T05:12:32.680Z,3.43
2018-04-19T05:15:01.736Z,3.20
2018-04-19T05:17:30.043Z,3.00
2018-04-19T05:19:59.119Z,3.53
2018-04-19T05:22:27.376Z,2.80
2018-04-19T05:24:55.649Z,3.00
2018-04-19T05:27:23.928Z,2.90
2018-04-19T05:29:52.224Z,3.40
2018-04-19T05:32:20.528Z,3.50
2018-04-19T05:34:49.566Z,3.10
2018-04-19T05:37:17.848Z,3.60
2018-04-19T05:39:46.125Z,3.00
2018-04-19T05:42:14.416Z,3.10
2018-04-19T05:44:42.701Z,3.17
2018-04-19T05:47:10.985Z,3.47
2018-04-19T05:49:39.344Z,3.30
2018-04-19T05:52:07.612Z,3.27
2018-04-19T05:54:35.899Z,2.80
2018-04-19T05:57:04.168Z,3.07
2018-04-19T05:59:32.460Z,3.07
2018-04-19T06:02:00.744Z,3.00
2018-04-19T06:04:29.083Z,3.45
2018-04-19T06:06:57.420Z,3.77
2018-04-19T06:09:26.475Z,3.23
2018-04-19T06:11:54.744Z,3.43
2018-04-19T06:14:23.024Z,4.07
2018-04-19T06:16:52.065Z,3.03
2018-04-19T06:19:21.127Z,2.60
2018-04-19T06:21:49.412Z,3.30
2018-04-19T06:24:17.691Z,3.37
2018-04-19T06:26:45.981Z,3.10
2018-04-19T06:29:15.029Z,3.10
2018-04-19T06:31:43.312Z,3.63
2018-04-19T06:34:11.589Z,3.50
2018-04-19T06:36:39.876Z,3.57
2018-04-19T06:39:08.170Z,2.93
2018-04-19T06:41:36.480Z,3.80
2018-04-19T06:44:04.760Z,3.10
2018-04-19T06:46:33.016Z,3.50
2018-04-19T06:49:02.078Z,3.17
2018-04-19T06:51:30.348Z,3.50
2018-04-19T06:53:58.662Z,3.20
2018-04-19T06:56:27.707Z,2.93
2018-04-19T06:58:56.007Z,2.97
2018-04-19T07:01:24.268Z,3.17
2018-04-19T07:03:52.573Z,3.00
2018-04-19T07:06:21.628Z,2.70
2018-04-19T07:08:49.915Z,2.90
2018-04-19T07:11:18.205Z,2.50
2018-04-19T07:13:46.482Z,2.50
2018-04-19T07:16:14.764Z,3.80
2018-04-19T07:18:43.038Z,3.23
2018-04-19T07:21:11.324Z,3.13
2018-04-19T07:23:39.601Z,3.50
2018-04-19T07:26:07.887Z,3.20
2018-04-19T07:28:36.924Z,3.03
2018-04-19T07:31:05.201Z,3.30
2018-04-19T07:33:33.488Z,3.03
2018-04-19T07:36:01.799Z,3.50
2018-04-19T07:38:30.095Z,3.07
2018-04-19T07:40:59.119Z,2.93
2018-04-19T07:43:27.447Z,3.30
2018-04-19T07:45:55.755Z,3.00
2018-04-19T07:48:24.068Z,2.70
2018-04-19T07:50:53.120Z,4.00
2018-04-19T07:53:23.429Z,8.97
2018-04-19T07:55:52.465Z,3.23
2018-04-19T07:58:20.754Z,3.43
2018-04-19T08:00:49.021Z,3.10
2018-04-19T08:03:17.301Z,2.60
2018-04-19T08:05:45.571Z,3.10
2018-04-19T08:08:13.835Z,3.43
2018-04-19T08:10:42.127Z,3.30
2018-04-19T08:13:10.487Z,3.07
2018-04-19T08:15:38.772Z,3.20
2018-04-19T08:18:07.046Z,2.73
2018-04-19T08:20:35.327Z,3.57
2018-04-19T08:23:03.632Z,3.00
2018-04-19T08:25:31.948Z,2.70
2018-04-19T08:28:00.985Z,3.43
2018-04-19T08:30:29.270Z,2.67
2018-04-19T08:32:57.549Z,3.10
2018-04-19T08:35:25.852Z,8.13
2018-04-19T08:37:54.124Z,4.23
2018-04-19T08:40:22.396Z,2.30
2018-04-19T08:42:50.677Z,2.37
2018-04-19T08:45:19.752Z,3.10
2018-04-19T08:47:48.047Z,2.40
2018-04-19T08:50:16.368Z,2.67
2018-04-19T08:52:44.621Z,2.50
2018-04-19T08:55:13.649Z,2.70
2018-04-19T08:57:41.936Z,2.30
2018-04-19T09:00:10.267Z,2.27
2018-04-19T09:02:39.303Z,1.80
2018-04-19T09:05:07.597Z,1.83
2018-04-19T09:07:35.864Z,2.33
2018-04-19T09:10:04.151Z,2.13
2018-04-19T09:12:32.416Z,2.27
2018-04-19T09:15:00.708Z,3.00
2018-04-19T09:17:29.007Z,4.80
2018-04-19T09:19:57.320Z,2.50
2018-04-19T09:22:25.588Z,2.30
2018-04-19T09:24:53.872Z,2.37
2018-04-19T09:27:22.172Z,2.67
2018-04-19T09:29:50.488Z,2.70
2018-04-19T09:32:18.788Z,2.37
2018-04-19T09:34:47.826Z,2.20
2018-04-19T09:37:16.101Z,2.50
2018-04-19T09:39:44.369Z,2.40
2018-04-19T09:42:12.732Z,2.40
2018-04-19T09:44:41.004Z,2.43
2018-04-19T09:47:09.259Z,2.87
2018-04-19T09:49:38.316Z,2.20
2018-04-19T09:52:06.592Z,2.60
2018-04-19T09:54:34.882Z,2.43
2018-04-19T09:57:03.159Z,2.13
2018-04-19T09:59:31.439Z,2.30
2018-04-19T10:02:04.683Z,2.20
2018-04-19T10:04:33.911Z,1.93
2018-04-19T10:07:02.182Z,2.10
2018-04-19T10:09:30.477Z,1.70
2018-04-19T10:11:58.786Z,2.20
2018-04-19T10:14:27.043Z,2.20
2018-04-19T10:16:55.312Z,2.23
2018-04-19T10:19:23.588Z,3.93
2018-04-19T10:21:51.871Z,3.17
2018-04-19T10:24:20.141Z,1.63
2018-04-19T10:26:48.437Z,2.20
2018-04-19T10:29:17.502Z,1.70
2018-04-19T10:31:45.792Z,1.90
2018-04-19T10:34:14.065Z,1.60
2018-04-19T10:36:42.361Z,1.70
2018-04-19T10:39:11.402Z,1.80
2018-04-19T10:41:39.666Z,1.83
2018-04-19T10:44:07.960Z,1.70
2018-04-19T10:46:36.322Z,1.90
2018-04-19T10:49:04.622Z,2.70
2018-04-19T10:51:32.893Z,1.70
2018-04-19T10:54:01.183Z,1.70
2018-04-19T10:56:29.464Z,1.63
2018-04-19T10:58:57.757Z,1.70
2018-04-19T11:01:26.025Z,1.67
2018-04-19T11:03:54.295Z,1.50
2018-04-19T11:06:23.365Z,1.53
2018-04-19T11:08:51.651Z,1.60
2018-04-19T11:11:20.065Z,1.77
2018-04-19T11:13:49.125Z,1.50
2018-04-19T11:16:17.403Z,1.60
2018-04-19T11:18:45.685Z,1.43
2018-04-19T11:21:13.975Z,1.53
2018-04-19T11:23:42.238Z,1.60
2018-04-19T11:26:10.528Z,1.67
2018-04-19T11:28:38.811Z,1.40
2018-04-19T11:31:07.859Z,1.40
2018-04-19T11:33:36.148Z,1.42
2018-04-19T11:36:04.420Z,1.73
2018-04-19T11:38:32.700Z,1.27
2018-04-19T11:41:01.104Z,1.10
2018-04-19T11:43:29.398Z,1.40
2018-04-19T11:45:58.445Z,1.30
2018-04-19T11:48:27.397Z,1.37
2018-04-19T11:50:56.439Z,2.00
2018-04-19T11:53:24.747Z,1.50
2018-04-19T11:55:53.808Z,1.87
2018-04-19T11:58:22.116Z,1.50
2018-04-19T12:00:50.401Z,1.03
2018-04-19T12:03:19.435Z,1.40
2018-04-19T12:05:47.725Z,1.30
2018-04-19T12:08:16.000Z,1.30
2018-04-19T12:10:44.287Z,1.23
2018-04-19T12:13:12.564Z,1.50
2018-04-19T12:15:40.837Z,1.50
2018-04-19T12:18:09.115Z,1.13
2018-04-19T12:20:37.400Z,1.07
2018-04-19T12:23:06.450Z,1.20
2018-04-19T12:25:34.800Z,1.00
2018-04-19T12:28:03.851Z,1.20
2018-04-19T12:30:32.115Z,1.30
2018-04-19T12:33:00.408Z,1.20
2018-04-19T12:35:28.680Z,1.40
2018-04-19T12:37:56.972Z,0.87
2018-04-19T12:40:25.259Z,1.33
2018-04-19T12:42:53.547Z,1.50
2018-04-19T12:45:21.829Z,1.17
2018-04-19T12:47:50.104Z,1.50
2018-04-19T12:50:19.153Z,1.10
2018-04-19T12:52:47.424Z,1.33
2018-04-19T12:55:15.717Z,1.30
2018-04-19T12:57:44.764Z,1.03
2018-04-19T13:00:13.817Z,1.00
2018-04-19T13:02:42.094Z,1.20
2018-04-19T13:05:11.892Z,1.10
2018-04-19T13:07:40.172Z,1.17
2018-04-19T13:10:08.459Z,1.07
2018-04-19T13:12:37.485Z,1.10
2018-04-19T13:15:06.533Z,1.20
2018-04-19T13:17:34.820Z,1.57
2018-04-19T13:20:03.104Z,1.00
2018-04-19T13:22:31.441Z,0.90
2018-04-19T13:24:59.680Z,0.83
2018-04-19T13:27:28.712Z,0.53
2018-04-19T13:29:57.001Z,1.10
2018-04-19T13:32:25.269Z,1.00
2018-04-19T13:34:53.556Z,0.93
2018-04-19T13:37:21.823Z,0.83
2018-04-19T13:39:50.122Z,0.83
2018-04-19T13:42:18.401Z,1.10
2018-04-19T13:44:46.695Z,0.70
2018-04-19T13:47:14.967Z,1.07
2018-04-19T13:49:43.263Z,0.67
2018-04-19T13:52:12.301Z,1.53
2018-04-19T13:54:40.589Z,1.33
2018-04-19T13:57:08.865Z,0.90
2018-04-19T13:59:37.172Z,1.27
2018-04-19T14:02:05.483Z,1.10
2018-04-19T14:04:33.767Z,1.43
2018-04-19T14:07:02.060Z,1.23
2018-04-19T14:09:30.355Z,1.10
2018-04-19T14:11:58.663Z,1.30
2018-04-19T14:14:27.228Z,1.00
2018-04-19T14:16:55.507Z,1.40
2018-04-19T14:19:23.798Z,1.23
2018-04-19T14:21:52.105Z,1.17
2018-04-19T14:24:20.380Z,1.00
2018-04-19T14:26:48.648Z,1.40
2018-04-19T14:29:16.940Z,1.40
2018-04-19T14:31:45.971Z,1.47
2018-04-19T14:34:14.259Z,1.50
2018-04-19T14:36:42.542Z,1.50
2018-04-19T14:39:10.839Z,1.73
2018-04-19T14:41:39.883Z,1.20
2018-04-19T14:44:08.940Z,1.70
2018-04-19T14:46:37.207Z,1.27
2018-04-19T14:49:06.250Z,2.10
2018-04-19T14:51:34.537Z,1.27
2018-04-19T14:54:02.812Z,1.30
2018-04-19T14:56:31.114Z,1.17
2018-04-19T14:59:00.163Z,1.50
2018-04-19T15:01:28.452Z,1.17
2018-04-19T15:03:57.488Z,1.60
2018-04-19T15:06:26.537Z,1.30
2018-04-19T15:08:54.801Z,1.20
2018-04-19T15:11:23.064Z,1.20
2018-04-19T15:13:51.353Z,1.30
2018-04-19T15:16:19.617Z,1.50
2018-04-19T15:18:47.907Z,1.30
2018-04-19T15:21:16.172Z,1.40
2018-04-19T15:23:44.476Z,1.65
2018-04-19T15:26:12.740Z,1.40
2018-04-19T15:28:41.061Z,2.10
2018-04-19T15:31:09.340Z,1.23
2018-04-19T15:33:37.633Z,1.83
2018-04-19T15:36:05.916Z,1.80
2018-04-19T15:38:34.211Z,1.60
2018-04-19T15:41:02.495Z,1.47
2018-04-19T15:43:30.769Z,1.10
2018-04-19T15:45:59.083Z,1.30
2018-04-19T15:48:27.358Z,1.97
2018-04-19T15:50:55.630Z,1.60
2018-04-19T15:53:23.911Z,1.43
2018-04-19T15:55:52.193Z,1.60
2018-04-19T15:58:20.480Z,1.63
2018-04-19T16:00:48.795Z,1.10
2018-04-19T16:03:17.088Z,1.10
2018-04-19T16:05:45.400Z,1.33
2018-04-19T16:08:13.675Z,1.60
2018-04-19T16:10:41.964Z,1.60
2018-04-19T16:13:11.056Z,1.30
2018-04-19T16:15:39.345Z,1.20
2018-04-19T16:18:08.387Z,1.00
2018-04-19T16:20:36.700Z,1.50
2018-04-19T16:23:04.977Z,1.17
2018-04-19T16:25:33.250Z,1.40
2018-04-19T16:28:01.541Z,1.57
2018-04-19T16:30:30.580Z,1.83
2018-04-19T16:32:58.880Z,1.27
2018-04-19T16:35:27.158Z,1.53
2018-04-19T16:37:55.460Z,1.00
2018-04-19T16:40:24.544Z,1.43
2018-04-19T16:42:52.836Z,1.30
2018-04-19T16:45:21.892Z,1.40
2018-04-19T16:47:50.193Z,1.17
2018-04-19T16:50:18.480Z,1.53
2018-04-19T16:52:47.533Z,2.07
2018-04-19T16:55:15.843Z,2.77
2018-04-19T16:57:44.110Z,3.07
2018-04-19T17:00:12.386Z,1.53
2018-04-19T17:02:40.677Z,1.57
2018-04-19T17:05:09.733Z,1.63
2018-04-19T17:07:38.016Z,1.50
2018-04-19T17:10:06.324Z,1.50
2018-04-19T17:12:35.371Z,1.87
2018-04-19T17:15:03.648Z,1.83
2018-04-19T17:17:31.921Z,1.10
2018-04-19T17:20:00.216Z,2.17
2018-04-19T17:22:28.513Z,1.20
2018-04-19T17:24:56.796Z,2.00
2018-04-19T17:27:25.084Z,2.47
2018-04-19T17:29:54.164Z,2.00
2018-04-19T17:32:22.472Z,1.10
2018-04-19T17:34:50.751Z,1.17
2018-04-19T17:37:19.033Z,1.60
2018-04-19T17:39:47.329Z,1.20
2018-04-19T17:42:15.596Z,1.30
2018-04-19T17:44:43.895Z,1.30
2018-04-19T17:47:12.166Z,1.50
2018-04-19T17:49:40.464Z,1.00
2018-04-19T17:52:08.731Z,1.20
2018-04-19T17:54:37.016Z,0.90
2018-04-19T17:57:06.088Z,1.40
2018-04-19T17:59:34.374Z,1.10
2018-04-19T18:02:02.638Z,1.50
2018-04-19T18:04:30.939Z,1.20
2018-04-19T18:06:59.220Z,1.10
2018-04-19T18:09:27.483Z,2.73
2018-04-19T18:11:55.767Z,1.40
2018-04-19T18:14:24.041Z,1.30
2018-04-19T18:16:52.423Z,1.80
2018-04-19T18:19:20.653Z,1.30
2018-04-19T18:21:48.925Z,1.67
2018-04-19T18:24:17.215Z,1.70
2018-04-19T18:26:45.497Z,1.70
2018-04-19T18:29:13.855Z,2.33
2018-04-19T18:31:42.157Z,1.73
2018-04-19T18:34:10.428Z,1.40
2018-04-19T18:36:38.709Z,1.83
2018-04-19T18:39:06.976Z,1.80
2018-04-19T18:41:35.284Z,1.73
2018-04-19T18:44:03.579Z,1.70
2018-04-19T18:46:31.930Z,1.77
2018-04-19T18:49:00.193Z,4.03
2018-04-19T18:51:28.522Z,1.90
2018-04-19T18:53:57.652Z,1.70
2018-04-19T18:56:26.202Z,2.10
2018-04-19T18:58:54.597Z,3.10
2018-04-19T19:01:23.721Z,2.20
2018-04-19T19:03:53.696Z,2.67
2018-04-19T19:06:22.110Z,2.20
2018-04-19T19:08:50.440Z,2.00
2018-04-19T19:11:19.184Z,1.97
2018-04-19T19:13:48.240Z,2.40
2018-04-19T19:16:17.381Z,2.20
2018-04-19T19:19:06.395Z,2.40
2018-04-19T19:21:34.877Z,1.90
2018-04-19T19:24:03.866Z,1.87
2018-04-19T19:26:32.323Z,2.63
2018-04-19T19:29:03.430Z,2.40
2018-04-19T19:31:32.688Z,2.00
2018-04-19T19:34:02.797Z,2.20
2018-04-19T19:36:33.592Z,2.90
2018-04-19T19:39:03.553Z,2.40
2018-04-19T19:41:33.547Z,2.60
2018-04-19T19:44:03.433Z,2.25
2018-04-19T19:46:33.361Z,2.27
2018-04-19T19:49:03.158Z,2.40
2018-04-19T19:51:33.072Z,2.70
2018-04-19T19:54:02.896Z,2.57
2018-04-19T19:56:32.921Z,2.27
2018-04-19T19:59:02.210Z,2.50
2018-04-19T20:01:33.242Z,2.50
2018-04-19T20:04:03.150Z,2.20
2018-04-19T20:06:32.923Z,2.70
2018-04-19T20:09:02.209Z,2.90
2018-04-19T20:11:31.496Z,2.80
2018-04-19T20:14:00.848Z,2.80
2018-04-19T20:16:30.038Z,2.70
2018-04-19T20:18:59.316Z,2.90
2018-04-19T20:21:29.370Z,2.83
2018-04-19T20:23:59.292Z,3.30
2018-04-19T20:26:28.473Z,2.97
2018-04-19T20:28:56.947Z,3.80
2018-04-19T20:31:26.239Z,3.13
2018-04-19T20:33:54.535Z,3.03
2018-04-19T20:36:22.975Z,3.20
2018-04-19T20:38:52.162Z,3.50
2018-04-19T20:41:20.482Z,3.10
2018-04-19T20:43:50.275Z,3.10
2018-04-19T20:46:18.609Z,4.00
2018-04-19T20:48:46.929Z,3.07
2018-04-19T20:51:16.024Z,3.00
2018-04-19T20:53:45.082Z,3.00
2018-04-19T20:56:13.351Z,2.27
2018-04-19T20:58:41.644Z,2.73
2018-04-19T21:01:09.941Z,2.47
2018-04-19T21:03:38.280Z,2.00
2018-04-19T21:06:06.551Z,4.47
2018-04-19T21:08:34.840Z,2.37
2018-04-19T21:11:03.108Z,2.00
2018-04-19T21:13:31.386Z,2.50
2018-04-19T21:15:59.676Z,2.10
2018-04-19T21:18:27.947Z,2.30
2018-04-19T21:20:56.240Z,2.50
2018-04-19T21:23:24.516Z,2.40
2018-04-19T21:25:52.804Z,2.60
2018-04-19T21:28:21.128Z,2.23
2018-04-19T21:30:49.479Z,3.00
2018-04-19T21:33:17.780Z,2.57
2018-04-19T21:35:46.079Z,2.30
2018-04-19T21:38:14.344Z,2.13
2018-04-19T21:40:42.670Z,2.23
2018-04-19T21:43:11.712Z,2.20
2018-04-19T21:45:40.010Z,2.20
2018-04-19T21:48:08.288Z,3.03
2018-04-19T21:50:36.556Z,2.90
2018-04-19T21:53:04.844Z,2.40
2018-04-19T21:55:33.131Z,3.03
2018-04-19T21:58:01.432Z,2.70
2018-04-19T22:00:30.521Z,2.50
2018-04-19T22:02:58.792Z,3.27
2018-04-19T22:05:27.096Z,2.90
2018-04-19T22:07:56.143Z,3.10
2018-04-19T22:10:24.444Z,2.37
2018-04-19T22:12:53.488Z,2.90
2018-04-19T22:15:21.756Z,2.70
2018-04-19T22:17:50.048Z,2.60
2018-04-19T22:20:18.355Z,4.10
2018-04-19T22:22:46.645Z,2.63
2018-04-19T22:25:14.966Z,2.83
2018-04-19T22:27:43.976Z,2.77
2018-04-19T22:30:12.277Z,2.97
2018-04-19T22:32:40.614Z,2.93
2018-04-19T22:35:08.937Z,3.63
2018-04-19T22:37:37.241Z,3.20
2018-04-19T22:40:06.279Z,3.50
2018-04-19T22:42:34.568Z,3.30
2018-04-19T22:45:02.874Z,3.73
2018-04-19T22:47:31.143Z,3.00
2018-04-19T22:49:59.423Z,3.70
2018-04-19T22:52:27.720Z,3.30
2018-04-19T22:54:56.767Z,3.07
2018-04-19T22:57:25.049Z,3.43
2018-04-19T22:59:53.345Z,3.27
2018-04-19T23:02:21.623Z,3.27
2018-04-19T23:04:49.897Z,3.47
2018-04-19T23:07:18.181Z,4.17
2018-04-19T23:09:47.230Z,3.40
2018-04-19T23:12:15.521Z,3.40
2018-04-19T23:14:43.807Z,4.05
2018-04-19T23:17:12.096Z,3.50
2018-04-19T23:19:40.391Z,3.13
2018-04-19T23:22:09.535Z,3.87
2018-04-19T23:24:37.823Z,3.20
2018-04-19T23:27:06.111Z,3.80
2018-04-19T23:29:34.424Z,3.70
2018-04-19T23:32:02.717Z,3.10
2018-04-19T23:34:31.038Z,3.00
2018-04-19T23:36:59.333Z,4.20
2018-04-19T23:39:27.663Z,3.67
2018-04-19T23:41:55.930Z,3.20
2018-04-19T23:44:24.226Z,3.97
2018-04-19T23:46:52.503Z,3.70
2018-04-19T23:49:20.793Z,4.00
2018-04-19T23:51:49.108Z,3.47
2018-04-19T23:54:18.163Z,3.77
2018-04-19T23:56:46.436Z,3.40
2018-04-19T23:59:14.710Z,3.27
